sensor_id;sensor_type;location;lat;lon;timestamp;pressure;altitude;pressure_sealevel;temperature;humidity
45275;BME280;31019;43.780;25.948;2024-02-23T00:01:12;100835.00;;;2.78;100.00
45275;BME280;31019;43.780;25.948;2024-02-23T00:03:39;100845.63;;;3.20;100.00
45275;BME280;31019;43.780;25.948;2024-02-23T00:06:06;100844.44;;;3.41;100.00
45275;BME280;31019;43.780;25.948;2024-02-23T00:08:35;100833.50;;;3.54;100.00
45275;BME280;31019;43.780;25.948;2024-02-23T00:11:03;100833.63;;;3.44;100.00
45275;BME280;31019;43.780;25.948;2024-02-23T00:13:31;100835.44;;;3.43;100.00
45275;BME280;31019;43.780;25.948;2024-02-23T00:15:58;100826.22;;;3.39;100.00
45275;BME280;31019;43.780;25.948;2024-02-23T00:18:27;100823.97;;;3.53;100.00
45275;BME280;31019;43.780;25.948;2024-02-23T00:20:54;100813.34;;;3.62;100.00
45275;BME280;31019;43.780;25.948;2024-02-23T00:23:21;100822.41;;;3.68;100.00
45275;BME280;31019;43.780;25.948;2024-02-23T00:25:50;100822.41;;;3.68;100.00
45275;BME280;31019;43.780;25.948;2024-02-23T00:28:18;100822.63;;;3.83;100.00
45275;BME280;31019;43.780;25.948;2024-02-23T00:30:45;100829.69;;;3.82;100.00
45275;BME280;31019;43.780;25.948;2024-02-23T00:33:11;100825.06;;;3.76;100.00
45275;BME280;31019;43.780;25.948;2024-02-23T00:35:38;100820.63;;;3.77;100.00
45275;BME280;31019;43.780;25.948;2024-02-23T00:38:05;100815.97;;;3.62;100.00
45275;BME280;31019;43.780;25.948;2024-02-23T00:40:33;100816.16;;;3.61;100.00
45275;BME280;31019;43.780;25.948;2024-02-23T00:43:01;100815.84;;;3.72;100.00
45275;BME280;31019;43.780;25.948;2024-02-23T00:45:28;100810.25;;;3.67;100.00
45275;BME280;31019;43.780;25.948;2024-02-23T00:47:55;100812.38;;;3.63;100.00
45275;BME280;31019;43.780;25.948;2024-02-23T00:50:22;100802.66;;;3.56;100.00
45275;BME280;31019;43.780;25.948;2024-02-23T00:52:51;100804.75;;;3.44;100.00
45275;BME280;31019;43.780;25.948;2024-02-23T00:55:19;100802.16;;;3.18;100.00
45275;BME280;31019;43.780;25.948;2024-02-23T00:57:46;100801.44;;;3.08;100.00
45275;BME280;31019;43.780;25.948;2024-02-23T01:00:15;100805.47;;;3.28;100.00
45275;BME280;31019;43.780;25.948;2024-02-23T01:02:42;100791.22;;;3.31;100.00
45275;BME280;31019;43.780;25.948;2024-02-23T01:05:08;100799.34;;;3.54;100.00
45275;BME280;31019;43.780;25.948;2024-02-23T01:07:36;100796.16;;;3.34;100.00
45275;BME280;31019;43.780;25.948;2024-02-23T01:10:03;100798.03;;;3.50;100.00
45275;BME280;31019;43.780;25.948;2024-02-23T01:12:30;100784.88;;;3.41;100.00
45275;BME280;31019;43.780;25.948;2024-02-23T01:14:57;100788.72;;;3.55;100.00
45275;BME280;31019;43.780;25.948;2024-02-23T01:17:25;100797.63;;;3.71;100.00
45275;BME280;31019;43.780;25.948;2024-02-23T01:19:52;100793.03;;;3.73;100.00
45275;BME280;31019;43.780;25.948;2024-02-23T01:22:19;100788.66;;;3.89;100.00
45275;BME280;31019;43.780;25.948;2024-02-23T01:24:46;100788.66;;;3.89;100.00
45275;BME280;31019;43.780;25.948;2024-02-23T01:27:13;100793.56;;;3.93;100.00
45275;BME280;31019;43.780;25.948;2024-02-23T01:29:40;100785.34;;;3.79;100.00
45275;BME280;31019;43.780;25.948;2024-02-23T01:32:06;100779.38;;;3.69;100.00
45275;BME280;31019;43.780;25.948;2024-02-23T01:34:35;100777.31;;;3.38;100.00
45275;BME280;31019;43.780;25.948;2024-02-23T01:37:02;100782.16;;;3.59;100.00
45275;BME280;31019;43.780;25.948;2024-02-23T01:39:29;100782.66;;;3.63;100.00
45275;BME280;31019;43.780;25.948;2024-02-23T01:41:56;100779.22;;;3.28;100.00
45275;BME280;31019;43.780;25.948;2024-02-23T01:44:24;100779.75;;;3.32;100.00
45275;BME280;31019;43.780;25.948;2024-02-23T01:46:51;100769.59;;;3.03;100.00
45275;BME280;31019;43.780;25.948;2024-02-23T01:49:18;100762.84;;;3.00;100.00
45275;BME280;31019;43.780;25.948;2024-02-23T01:51:49;100766.38;;;3.51;100.00
45275;BME280;31019;43.780;25.948;2024-02-23T01:54:16;100757.13;;;3.81;100.00
45275;BME280;31019;43.780;25.948;2024-02-23T01:56:43;100760.50;;;3.65;100.00
45275;BME280;31019;43.780;25.948;2024-02-23T01:59:11;100758.78;;;4.07;100.00
45275;BME280;31019;43.780;25.948;2024-02-23T02:01:39;100769.78;;;4.10;100.00
45275;BME280;31019;43.780;25.948;2024-02-23T02:04:06;100762.22;;;3.99;100.00
45275;BME280;31019;43.780;25.948;2024-02-23T02:06:33;100765.22;;;4.21;100.00
45275;BME280;31019;43.780;25.948;2024-02-23T02:09:01;100754.53;;;4.47;100.00
45275;BME280;31019;43.780;25.948;2024-02-23T02:11:28;100758.00;;;4.39;100.00
45275;BME280;31019;43.780;25.948;2024-02-23T02:13:55;100756.69;;;4.27;100.00
45275;BME280;31019;43.780;25.948;2024-02-23T02:16:22;100763.38;;;3.97;100.00
45275;BME280;31019;43.780;25.948;2024-02-23T02:18:49;100762.53;;;3.96;100.00
45275;BME280;31019;43.780;25.948;2024-02-23T02:21:16;100759.13;;;4.20;100.00
45275;BME280;31019;43.780;25.948;2024-02-23T02:23:44;100767.34;;;4.17;100.00
45275;BME280;31019;43.780;25.948;2024-02-23T02:26:12;100766.34;;;4.02;100.00
45275;BME280;31019;43.780;25.948;2024-02-23T02:28:39;100765.53;;;3.51;100.00
45275;BME280;31019;43.780;25.948;2024-02-23T02:31:06;100771.63;;;4.26;100.00
45275;BME280;31019;43.780;25.948;2024-02-23T02:33:33;100768.34;;;4.16;100.00
45275;BME280;31019;43.780;25.948;2024-02-23T02:36:00;100771.91;;;3.90;100.00
45275;BME280;31019;43.780;25.948;2024-02-23T02:38:30;100779.00;;;4.06;100.00
45275;BME280;31019;43.780;25.948;2024-02-23T02:40:58;100771.78;;;4.25;100.00
45275;BME280;31019;43.780;25.948;2024-02-23T02:43:27;100761.13;;;4.51;100.00
45275;BME280;31019;43.780;25.948;2024-02-23T02:45:54;100768.97;;;3.94;100.00
45275;BME280;31019;43.780;25.948;2024-02-23T02:48:22;100778.06;;;4.24;100.00
45275;BME280;31019;43.780;25.948;2024-02-23T02:50:49;100772.47;;;4.51;100.00
45275;BME280;31019;43.780;25.948;2024-02-23T02:53:16;100776.91;;;4.51;100.00
45275;BME280;31019;43.780;25.948;2024-02-23T02:55:43;100768.66;;;4.62;100.00
45275;BME280;31019;43.780;25.948;2024-02-23T02:58:11;100772.59;;;4.42;100.00
45275;BME280;31019;43.780;25.948;2024-02-23T03:00:39;100768.84;;;4.61;100.00
45275;BME280;31019;43.780;25.948;2024-02-23T03:03:06;100772.44;;;4.68;100.00
45275;BME280;31019;43.780;25.948;2024-02-23T03:05:33;100775.03;;;4.84;100.00
45275;BME280;31019;43.780;25.948;2024-02-23T03:08:00;100769.63;;;4.94;100.00
45275;BME280;31019;43.780;25.948;2024-02-23T03:10:27;100776.19;;;4.98;100.00
45275;BME280;31019;43.780;25.948;2024-02-23T03:12:54;100772.88;;;5.04;100.00
45275;BME280;31019;43.780;25.948;2024-02-23T03:15:21;100776.47;;;5.11;100.00
45275;BME280;31019;43.780;25.948;2024-02-23T03:17:49;100772.28;;;4.61;100.00
45275;BME280;31019;43.780;25.948;2024-02-23T03:20:16;100771.97;;;4.64;100.00
45275;BME280;31019;43.780;25.948;2024-02-23T03:22:43;100773.41;;;4.75;100.00
45275;BME280;31019;43.780;25.948;2024-02-23T03:25:10;100769.47;;;4.87;100.00
45275;BME280;31019;43.780;25.948;2024-02-23T03:27:42;100772.41;;;4.92;100.00
45275;BME280;31019;43.780;25.948;2024-02-23T03:30:10;100770.97;;;4.81;100.00
45275;BME280;31019;43.780;25.948;2024-02-23T03:32:37;100773.78;;;4.64;100.00
45275;BME280;31019;43.780;25.948;2024-02-23T03:35:06;100764.06;;;4.56;100.00
45275;BME280;31019;43.780;25.948;2024-02-23T03:37:34;100766.88;;;4.54;100.00
45275;BME280;31019;43.780;25.948;2024-02-23T03:40:01;100774.09;;;4.52;100.00
45275;BME280;31019;43.780;25.948;2024-02-23T03:42:30;100777.06;;;4.41;100.00
45275;BME280;31019;43.780;25.948;2024-02-23T03:44:57;100775.03;;;5.00;100.00
45275;BME280;31019;43.780;25.948;2024-02-23T03:47:24;100775.50;;;5.04;100.00
45275;BME280;31019;43.780;25.948;2024-02-23T03:49:51;100768.75;;;5.18;100.00
45275;BME280;31019;43.780;25.948;2024-02-23T03:52:19;100774.72;;;4.95;100.00
45275;BME280;31019;43.780;25.948;2024-02-23T03:54:46;100763.75;;;4.67;100.00
45275;BME280;31019;43.780;25.948;2024-02-23T03:57:14;100773.03;;;5.11;100.00
45275;BME280;31019;43.780;25.948;2024-02-23T03:59:51;100765.50;;;4.99;100.00
45275;BME280;31019;43.780;25.948;2024-02-23T04:02:18;100777.94;;;5.14;100.00
45275;BME280;31019;43.780;25.948;2024-02-23T04:04:46;100788.00;;;5.18;100.00
45275;BME280;31019;43.780;25.948;2024-02-23T04:07:13;100779.22;;;5.26;100.00
45275;BME280;31019;43.780;25.948;2024-02-23T04:09:41;100775.78;;;5.25;100.00
45275;BME280;31019;43.780;25.948;2024-02-23T04:12:08;100776.09;;;5.31;100.00
45275;BME280;31019;43.780;25.948;2024-02-23T04:14:36;100779.81;;;4.80;100.00
45275;BME280;31019;43.780;25.948;2024-02-23T04:17:09;100774.94;;;4.69;100.00
45275;BME280;31019;43.780;25.948;2024-02-23T04:19:37;100771.78;;;4.74;100.00
45275;BME280;31019;43.780;25.948;2024-02-23T04:22:05;100772.13;;;4.79;100.00
45275;BME280;31019;43.780;25.948;2024-02-23T04:24:38;100771.13;;;4.55;100.00
45275;BME280;31019;43.780;25.948;2024-02-23T04:27:07;100767.69;;;4.30;100.00
45275;BME280;31019;43.780;25.948;2024-02-23T04:29:34;100767.34;;;4.17;100.00
45275;BME280;31019;43.780;25.948;2024-02-23T04:32:03;100766.84;;;4.13;100.00
45275;BME280;31019;43.780;25.948;2024-02-23T04:34:29;100768.63;;;3.88;100.00
45275;BME280;31019;43.780;25.948;2024-02-23T04:36:56;100776.13;;;3.67;100.00
45275;BME280;31019;43.780;25.948;2024-02-23T04:39:23;100773.31;;;3.68;100.00
45275;BME280;31019;43.780;25.948;2024-02-23T04:41:52;100786.75;;;3.65;100.00
45275;BME280;31019;43.780;25.948;2024-02-23T04:44:22;100785.28;;;3.63;100.00
45275;BME280;31019;43.780;25.948;2024-02-23T04:46:48;100786.13;;;3.63;100.00
45275;BME280;31019;43.780;25.948;2024-02-23T04:49:15;100783.22;;;3.40;100.00
45275;BME280;31019;43.780;25.948;2024-02-23T04:51:42;100782.22;;;3.41;100.00
45275;BME280;31019;43.780;25.948;2024-02-23T04:54:09;100782.28;;;3.50;100.00
45275;BME280;31019;43.780;25.948;2024-02-23T04:56:36;100789.78;;;3.79;100.00
45275;BME280;31019;43.780;25.948;2024-02-23T04:59:03;100783.25;;;4.07;100.00
45275;BME280;31019;43.780;25.948;2024-02-23T05:01:35;100787.56;;;4.17;100.00
45275;BME280;31019;43.780;25.948;2024-02-23T05:04:04;100793.69;;;3.66;100.00
45275;BME280;31019;43.780;25.948;2024-02-23T05:06:31;100796.06;;;3.94;100.00
45275;BME280;31019;43.780;25.948;2024-02-23T05:08:58;100796.56;;;3.98;100.00
45275;BME280;31019;43.780;25.948;2024-02-23T05:11:25;100787.69;;;3.99;100.00
45275;BME280;31019;43.780;25.948;2024-02-23T05:13:52;100801.16;;;3.96;100.00
45275;BME280;31019;43.780;25.948;2024-02-23T05:16:19;100800.66;;;4.08;100.00
45275;BME280;31019;43.780;25.948;2024-02-23T05:18:47;100804.00;;;4.19;100.00
45275;BME280;31019;43.780;25.948;2024-02-23T05:21:15;100808.78;;;4.31;100.00
45275;BME280;31019;43.780;25.948;2024-02-23T05:23:42;100801.06;;;4.46;100.00
45275;BME280;31019;43.780;25.948;2024-02-23T05:26:11;100806.16;;;4.48;100.00
45275;BME280;31019;43.780;25.948;2024-02-23T05:28:38;100816.53;;;6.85;100.00
45275;BME280;31019;43.780;25.948;2024-02-23T05:31:05;100815.47;;;5.24;100.00
45275;BME280;31019;43.780;25.948;2024-02-23T05:33:35;100829.00;;;4.80;100.00
45275;BME280;31019;43.780;25.948;2024-02-23T05:36:06;100823.75;;;4.55;100.00
45275;BME280;31019;43.780;25.948;2024-02-23T05:38:33;100825.91;;;4.60;100.00
45275;BME280;31019;43.780;25.948;2024-02-23T05:40:59;100825.56;;;4.55;100.00
45275;BME280;31019;43.780;25.948;2024-02-23T05:43:26;100833.44;;;4.71;100.00
45275;BME280;31019;43.780;25.948;2024-02-23T05:45:53;100826.53;;;4.87;100.00
45275;BME280;31019;43.780;25.948;2024-02-23T05:48:22;100837.38;;;5.08;100.00
45275;BME280;31019;43.780;25.948;2024-02-23T05:50:49;100837.69;;;5.21;100.00
45275;BME280;31019;43.780;25.948;2024-02-23T05:53:17;100829.09;;;5.36;100.00
45275;BME280;31019;43.780;25.948;2024-02-23T05:55:45;100836.47;;;5.48;100.00
45275;BME280;31019;43.780;25.948;2024-02-23T05:58:12;100840.84;;;5.64;100.00
45275;BME280;31019;43.780;25.948;2024-02-23T06:00:42;100837.19;;;5.73;100.00
45275;BME280;31019;43.780;25.948;2024-02-23T06:03:08;100837.47;;;5.87;100.00
45275;BME280;31019;43.780;25.948;2024-02-23T06:05:35;100835.28;;;5.99;100.00
45275;BME280;31019;43.780;25.948;2024-02-23T06:08:03;100845.56;;;6.16;100.00
45275;BME280;31019;43.780;25.948;2024-02-23T06:10:31;100846.19;;;6.50;100.00
45275;BME280;31019;43.780;25.948;2024-02-23T06:12:58;100846.56;;;6.70;100.00
45275;BME280;31019;43.780;25.948;2024-02-23T06:15:25;100843.59;;;6.87;100.00
45275;BME280;31019;43.780;25.948;2024-02-23T06:17:52;100842.44;;;7.20;100.00
45275;BME280;31019;43.780;25.948;2024-02-23T06:20:19;100843.66;;;7.32;100.00
45275;BME280;31019;43.780;25.948;2024-02-23T06:22:46;100847.69;;;7.57;100.00
45275;BME280;31019;43.780;25.948;2024-02-23T06:25:14;100856.50;;;7.79;100.00
45275;BME280;31019;43.780;25.948;2024-02-23T06:27:42;100858.47;;;8.07;100.00
45275;BME280;31019;43.780;25.948;2024-02-23T06:30:10;100854.16;;;8.21;100.00
45275;BME280;31019;43.780;25.948;2024-02-23T06:32:37;100848.09;;;8.42;100.00
45275;BME280;31019;43.780;25.948;2024-02-23T06:35:04;100857.78;;;8.56;100.00
45275;BME280;31019;43.780;25.948;2024-02-23T06:37:32;100849.84;;;8.78;100.00
45275;BME280;31019;43.780;25.948;2024-02-23T06:39:59;100847.34;;;8.98;100.00
45275;BME280;31019;43.780;25.948;2024-02-23T06:42:26;100849.63;;;9.01;100.00
45275;BME280;31019;43.780;25.948;2024-02-23T06:44:54;100846.41;;;9.05;100.00
45275;BME280;31019;43.780;25.948;2024-02-23T06:47:22;100849.75;;;9.14;100.00
45275;BME280;31019;43.780;25.948;2024-02-23T06:49:48;100849.09;;;9.12;100.00
45275;BME280;31019;43.780;25.948;2024-02-23T06:52:16;100846.31;;;9.20;100.00
45275;BME280;31019;43.780;25.948;2024-02-23T06:54:43;100857.50;;;9.50;100.00
45275;BME280;31019;43.780;25.948;2024-02-23T06:57:10;100844.16;;;9.72;100.00
45275;BME280;31019;43.780;25.948;2024-02-23T06:59:37;100855.19;;;9.75;100.00
45275;BME280;31019;43.780;25.948;2024-02-23T07:02:06;100848.81;;;10.11;100.00
45275;BME280;31019;43.780;25.948;2024-02-23T07:04:32;100844.03;;;9.93;100.00
45275;BME280;31019;43.780;25.948;2024-02-23T07:06:59;100843.91;;;10.15;100.00
45275;BME280;31019;43.780;25.948;2024-02-23T07:09:32;100847.94;;;10.65;100.00
45275;BME280;31019;43.780;25.948;2024-02-23T07:11:58;100840.38;;;10.75;100.00
45275;BME280;31019;43.780;25.948;2024-02-23T07:14:25;100843.00;;;11.09;100.00
45275;BME280;31019;43.780;25.948;2024-02-23T07:16:52;100839.31;;;11.23;100.00
45275;BME280;31019;43.780;25.948;2024-02-23T07:19:24;100843.66;;;11.82;100.00
45275;BME280;31019;43.780;25.948;2024-02-23T07:21:50;100840.97;;;11.89;100.00
45275;BME280;31019;43.780;25.948;2024-02-23T07:24:17;100847.84;;;12.17;100.00
45275;BME280;31019;43.780;25.948;2024-02-23T07:26:44;100843.38;;;12.10;100.00
45275;BME280;31019;43.780;25.948;2024-02-23T07:29:11;100840.56;;;12.30;100.00
45275;BME280;31019;43.780;25.948;2024-02-23T07:31:38;100839.91;;;12.42;100.00
45275;BME280;31019;43.780;25.948;2024-02-23T07:34:05;100839.28;;;12.71;100.00
45275;BME280;31019;43.780;25.948;2024-02-23T07:36:33;100843.03;;;12.89;100.00
45275;BME280;31019;43.780;25.948;2024-02-23T07:39:00;100838.56;;;13.07;100.00
45275;BME280;31019;43.780;25.948;2024-02-23T07:41:28;100846.44;;;12.71;100.00
45275;BME280;31019;43.780;25.948;2024-02-23T07:43:54;100835.97;;;13.44;100.00
45275;BME280;31019;43.780;25.948;2024-02-23T07:46:21;100843.06;;;13.87;100.00
45275;BME280;31019;43.780;25.948;2024-02-23T07:48:48;100839.28;;;13.95;100.00
45275;BME280;31019;43.780;25.948;2024-02-23T07:51:15;100837.84;;;14.11;100.00
45275;BME280;31019;43.780;25.948;2024-02-23T07:53:44;100836.13;;;13.86;100.00
45275;BME280;31019;43.780;25.948;2024-02-23T07:56:10;100844.19;;;13.98;100.00
45275;BME280;31019;43.780;25.948;2024-02-23T07:58:38;100838.50;;;14.66;100.00
45275;BME280;31019;43.780;25.948;2024-02-23T08:01:06;100838.16;;;14.75;100.00
45275;BME280;31019;43.780;25.948;2024-02-23T08:03:33;100842.72;;;13.22;100.00
45275;BME280;31019;43.780;25.948;2024-02-23T08:06:00;100841.81;;;15.04;100.00
45275;BME280;31019;43.780;25.948;2024-02-23T08:08:27;100832.47;;;15.18;100.00
45275;BME280;31019;43.780;25.948;2024-02-23T08:10:55;100839.22;;;15.44;100.00
45275;BME280;31019;43.780;25.948;2024-02-23T08:13:22;100836.88;;;15.36;100.00
45275;BME280;31019;43.780;25.948;2024-02-23T08:15:49;100835.13;;;15.53;100.00
45275;BME280;31019;43.780;25.948;2024-02-23T08:18:16;100837.97;;;16.44;100.00
45275;BME280;31019;43.780;25.948;2024-02-23T08:20:43;100838.19;;;16.43;100.00
45275;BME280;31019;43.780;25.948;2024-02-23T08:23:11;100840.38;;;16.29;100.00
45275;BME280;31019;43.780;25.948;2024-02-23T08:25:38;100837.78;;;16.06;100.00
45275;BME280;31019;43.780;25.948;2024-02-23T08:28:08;100841.50;;;16.79;81.08
45275;BME280;31019;43.780;25.948;2024-02-23T08:30:35;100847.47;;;12.70;100.00
45275;BME280;31019;43.780;25.948;2024-02-23T08:33:02;100845.66;;;12.00;100.00
45275;BME280;31019;43.780;25.948;2024-02-23T08:35:30;100836.34;;;12.23;100.00
45275;BME280;31019;43.780;25.948;2024-02-23T08:37:58;100825.00;;;14.73;100.00
45275;BME280;31019;43.780;25.948;2024-02-23T08:40:25;100832.13;;;14.68;100.00
45275;BME280;31019;43.780;25.948;2024-02-23T08:42:52;100833.81;;;13.71;100.00
45275;BME280;31019;43.780;25.948;2024-02-23T08:45:20;100829.09;;;14.87;100.00
45275;BME280;31019;43.780;25.948;2024-02-23T08:47:47;100839.56;;;12.25;100.00
45275;BME280;31019;43.780;25.948;2024-02-23T08:50:14;100829.56;;;13.82;100.00
45275;BME280;31019;43.780;25.948;2024-02-23T08:52:41;100830.38;;;13.83;100.00
45275;BME280;31019;43.780;25.948;2024-02-23T08:55:08;100833.13;;;13.94;100.00
45275;BME280;31019;43.780;25.948;2024-02-23T08:57:37;100833.72;;;15.63;100.00
45275;BME280;31019;43.780;25.948;2024-02-23T09:00:06;100841.63;;;14.63;100.00
45275;BME280;31019;43.780;25.948;2024-02-23T09:02:35;100836.47;;;13.90;100.00
45275;BME280;31019;43.780;25.948;2024-02-23T09:05:04;100843.25;;;12.87;100.00
45275;BME280;31019;43.780;25.948;2024-02-23T09:07:31;100847.84;;;12.48;100.00
45275;BME280;31019;43.780;25.948;2024-02-23T09:09:58;100841.59;;;13.55;100.00
45275;BME280;31019;43.780;25.948;2024-02-23T09:12:25;100846.44;;;15.32;100.00
45275;BME280;31019;43.780;25.948;2024-02-23T09:14:52;100844.31;;;14.33;100.00
45275;BME280;31019;43.780;25.948;2024-02-23T09:17:19;100848.47;;;12.75;100.00
45275;BME280;31019;43.780;25.948;2024-02-23T09:19:47;100840.19;;;12.58;100.00
45275;BME280;31019;43.780;25.948;2024-02-23T09:22:14;100853.16;;;11.52;100.00
45275;BME280;31019;43.780;25.948;2024-02-23T09:24:42;100838.97;;;15.69;100.00
45275;BME280;31019;43.780;25.948;2024-02-23T09:27:12;100848.63;;;14.76;100.00
45275;BME280;31019;43.780;25.948;2024-02-23T09:29:40;100835.38;;;18.86;72.85
45275;BME280;31019;43.780;25.948;2024-02-23T09:32:07;100847.41;;;16.47;78.19
45275;BME280;31019;43.780;25.948;2024-02-23T09:34:34;100841.22;;;15.14;99.41
45275;BME280;31019;43.780;25.948;2024-02-23T09:37:02;100842.84;;;15.15;100.00
45275;BME280;31019;43.780;25.948;2024-02-23T09:39:29;100841.66;;;16.26;81.98
45275;BME280;31019;43.780;25.948;2024-02-23T09:41:56;100845.84;;;15.06;100.00
45275;BME280;31019;43.780;25.948;2024-02-23T09:44:23;100835.16;;;13.44;100.00
45275;BME280;31019;43.780;25.948;2024-02-23T09:46:53;100837.06;;;14.52;100.00
45275;BME280;31019;43.780;25.948;2024-02-23T09:49:20;100831.88;;;17.55;79.28
45275;BME280;31019;43.780;25.948;2024-02-23T09:51:48;100831.09;;;14.08;100.00
45275;BME280;31019;43.780;25.948;2024-02-23T09:54:16;100830.88;;;15.17;100.00
45275;BME280;31019;43.780;25.948;2024-02-23T09:56:44;100826.88;;;14.73;100.00
45275;BME280;31019;43.780;25.948;2024-02-23T09:59:11;100825.09;;;15.61;100.00
45275;BME280;31019;43.780;25.948;2024-02-23T10:01:39;100827.44;;;17.44;75.62
45275;BME280;31019;43.780;25.948;2024-02-23T10:04:06;100823.09;;;17.21;75.58
45275;BME280;31019;43.780;25.948;2024-02-23T10:06:33;100818.25;;;17.62;67.58
45275;BME280;31019;43.780;25.948;2024-02-23T10:09:00;100825.25;;;15.42;100.00
45275;BME280;31019;43.780;25.948;2024-02-23T10:11:31;100825.94;;;13.77;100.00
45275;BME280;31019;43.780;25.948;2024-02-23T10:13:57;100827.13;;;15.42;100.00
45275;BME280;31019;43.780;25.948;2024-02-23T10:16:24;100817.38;;;16.79;78.63
45275;BME280;31019;43.780;25.948;2024-02-23T10:18:51;100817.63;;;17.55;83.90
45275;BME280;31019;43.780;25.948;2024-02-23T10:21:18;100814.53;;;15.94;99.34
45275;BME280;31019;43.780;25.948;2024-02-23T10:23:45;100810.47;;;16.83;85.25
45275;BME280;31019;43.780;25.948;2024-02-23T10:26:12;100811.50;;;17.37;77.57
45275;BME280;31019;43.780;25.948;2024-02-23T10:28:45;100799.28;;;19.82;56.92
45275;BME280;31019;43.780;25.948;2024-02-23T10:31:12;100799.31;;;17.52;57.34
45275;BME280;31019;43.780;25.948;2024-02-23T10:33:43;100801.81;;;17.36;58.46
45275;BME280;31019;43.780;25.948;2024-02-23T10:36:11;100797.91;;;16.55;73.66
45275;BME280;31019;43.780;25.948;2024-02-23T10:38:45;100787.38;;;17.21;68.27
45275;BME280;31019;43.780;25.948;2024-02-23T10:41:13;100787.78;;;15.30;93.13
45275;BME280;31019;43.780;25.948;2024-02-23T10:43:41;100784.25;;;16.73;94.98
45275;BME280;31019;43.780;25.948;2024-02-23T10:46:15;100782.97;;;16.92;74.37
45275;BME280;31019;43.780;25.948;2024-02-23T10:48:44;100788.09;;;14.40;100.00
45275;BME280;31019;43.780;25.948;2024-02-23T10:51:13;100793.28;;;15.64;100.00
45275;BME280;31019;43.780;25.948;2024-02-23T10:53:40;100786.41;;;20.10;54.42
45275;BME280;31019;43.780;25.948;2024-02-23T10:56:07;100790.53;;;16.45;70.23
45275;BME280;31019;43.780;25.948;2024-02-23T10:58:36;100785.44;;;18.04;65.73
45275;BME280;31019;43.780;25.948;2024-02-23T11:01:06;100785.22;;;16.16;81.30
45275;BME280;31019;43.780;25.948;2024-02-23T11:03:36;100781.16;;;18.67;57.89
45275;BME280;31019;43.780;25.948;2024-02-23T11:06:06;100777.63;;;15.96;85.75
45275;BME280;31019;43.780;25.948;2024-02-23T11:08:34;100785.28;;;14.23;100.00
45275;BME280;31019;43.780;25.948;2024-02-23T11:11:07;100776.41;;;16.83;75.42
45275;BME280;31019;43.780;25.948;2024-02-23T11:13:34;100777.03;;;14.78;100.00
45275;BME280;31019;43.780;25.948;2024-02-23T11:16:02;100768.91;;;16.35;95.07
45275;BME280;31019;43.780;25.948;2024-02-23T11:18:29;100752.22;;;19.42;58.64
45275;BME280;31019;43.780;25.948;2024-02-23T11:21:01;100767.31;;;18.86;54.56
45275;BME280;31019;43.780;25.948;2024-02-23T11:23:39;100766.72;;;20.14;46.08
45275;BME280;31019;43.780;25.948;2024-02-23T11:26:06;100760.09;;;21.38;42.50
45275;BME280;31019;43.780;25.948;2024-02-23T11:28:42;100764.81;;;20.97;44.08
45275;BME280;31019;43.780;25.948;2024-02-23T11:31:14;100761.16;;;17.06;65.10
45275;BME280;31019;43.780;25.948;2024-02-23T11:33:47;100748.53;;;18.59;52.43
45275;BME280;31019;43.780;25.948;2024-02-23T11:36:22;100755.25;;;18.56;57.59
45275;BME280;31019;43.780;25.948;2024-02-23T11:38:52;100744.50;;;17.48;67.55
45275;BME280;31019;43.780;25.948;2024-02-23T11:41:20;100747.31;;;20.07;49.83
45275;BME280;31019;43.780;25.948;2024-02-23T11:43:47;100731.97;;;21.89;41.81
45275;BME280;31019;43.780;25.948;2024-02-23T11:46:15;100746.63;;;19.54;44.84
45275;BME280;31019;43.780;25.948;2024-02-23T11:48:42;100738.66;;;16.06;76.79
45275;BME280;31019;43.780;25.948;2024-02-23T11:51:09;100732.75;;;20.03;47.29
45275;BME280;31019;43.780;25.948;2024-02-23T11:53:38;100726.81;;;18.33;51.70
45275;BME280;31019;43.780;25.948;2024-02-23T11:56:06;100728.31;;;17.65;57.23
45275;BME280;31019;43.780;25.948;2024-02-23T11:58:33;100726.28;;;18.68;52.71
45275;BME280;31019;43.780;25.948;2024-02-23T12:01:00;100731.31;;;16.46;73.13
45275;BME280;31019;43.780;25.948;2024-02-23T12:03:28;100730.53;;;16.00;80.79
45275;BME280;31019;43.780;25.948;2024-02-23T12:05:56;100720.41;;;17.09;69.32
45275;BME280;31019;43.780;25.948;2024-02-23T12:08:24;100721.41;;;20.73;45.23
45275;BME280;31019;43.780;25.948;2024-02-23T12:10:54;100711.53;;;19.29;43.85
45275;BME280;31019;43.780;25.948;2024-02-23T12:13:21;100714.94;;;20.07;45.91
45275;BME280;31019;43.780;25.948;2024-02-23T12:15:48;100717.91;;;20.06;45.22
45275;BME280;31019;43.780;25.948;2024-02-23T12:18:21;100709.84;;;20.01;45.61
45275;BME280;31019;43.780;25.948;2024-02-23T12:20:48;100712.47;;;18.97;52.23
45275;BME280;31019;43.780;25.948;2024-02-23T12:23:15;100708.19;;;19.84;44.30
45275;BME280;31019;43.780;25.948;2024-02-23T12:25:53;100707.81;;;18.45;53.02
45275;BME280;31019;43.780;25.948;2024-02-23T12:28:21;100697.78;;;19.30;44.11
45275;BME280;31019;43.780;25.948;2024-02-23T12:30:58;100700.78;;;19.39;45.83
45275;BME280;31019;43.780;25.948;2024-02-23T12:33:27;100707.31;;;17.83;57.84
45275;BME280;31019;43.780;25.948;2024-02-23T12:35:55;100702.63;;;19.23;45.46
45275;BME280;31019;43.780;25.948;2024-02-23T12:38:22;100715.72;;;19.72;51.47
45275;BME280;31019;43.780;25.948;2024-02-23T12:40:49;100712.00;;;20.55;44.38